createdAt,value
2023-08-23T00:00:26.862Z,27.67
2023-08-23T00:02:54.730Z,27.72
2023-08-23T00:05:22.724Z,27.63
2023-08-23T00:07:50.419Z,27.61
2023-08-23T00:10:18.425Z,27.64
2023-08-23T00:12:45.930Z,27.53
2023-08-23T00:15:13.400Z,27.40
2023-08-23T00:17:41.271Z,27.53
2023-08-23T00:20:09.203Z,27.58
2023-08-23T00:22:36.726Z,27.30
2023-08-23T00:25:04.911Z,27.26
2023-08-23T00:27:32.433Z,27.32
2023-08-23T00:29:59.953Z,27.21
2023-08-23T00:32:28.461Z,27.32
2023-08-23T00:34:56.339Z,27.40
2023-08-23T00:37:23.997Z,27.41
2023-08-23T00:39:51.760Z,27.36
2023-08-23T00:42:19.331Z,27.40
2023-08-23T00:44:46.835Z,27.25
2023-08-23T00:47:14.668Z,27.31
2023-08-23T00:49:42.177Z,27.16
2023-08-23T00:52:11.241Z,27.20
2023-08-23T00:54:39.025Z,27.25
2023-08-23T00:57:07.586Z,27.15
2023-08-23T00:59:36.940Z,27.00
2023-08-23T01:02:04.830Z,27.02
2023-08-23T01:04:32.402Z,27.05
2023-08-23T01:07:05.536Z,27.12
2023-08-23T01:09:44.154Z,27.05
2023-08-23T01:12:30.781Z,27.00
2023-08-23T01:15:06.434Z,27.01
2023-08-23T01:17:34.273Z,26.79
2023-08-23T01:20:03.562Z,26.97
2023-08-23T01:22:31.744Z,27.03
2023-08-23T01:24:59.805Z,27.08
2023-08-23T01:27:30.922Z,27.05
2023-08-23T01:30:00.312Z,27.05
2023-08-23T01:32:49.324Z,27.09
2023-08-23T01:35:21.368Z,27.03
2023-08-23T01:37:53.847Z,27.01
2023-08-23T01:40:21.366Z,26.94
2023-08-23T01:42:49.355Z,26.99
2023-08-23T01:45:17.050Z,26.98
2023-08-23T01:47:44.779Z,26.98
2023-08-23T01:50:13.481Z,26.94
2023-08-23T01:52:41.030Z,26.97
2023-08-23T01:55:09.245Z,26.91
2023-08-23T01:57:38.085Z,26.93
2023-08-23T02:00:06.302Z,26.98
2023-08-23T02:02:41.977Z,26.97
2023-08-23T02:05:09.926Z,26.94
2023-08-23T02:07:37.440Z,26.87
2023-08-23T02:10:05.399Z,26.87
2023-08-23T02:12:33.304Z,26.93
2023-08-23T02:15:00.779Z,26.94
2023-08-23T02:17:28.675Z,26.90
2023-08-23T02:19:56.170Z,26.88
2023-08-23T02:22:23.701Z,26.91
2023-08-23T02:24:51.482Z,26.89
2023-08-23T02:27:18.981Z,26.90
2023-08-23T02:29:46.559Z,26.91
2023-08-23T02:32:14.328Z,26.86
2023-08-23T02:34:42.057Z,26.92
2023-08-23T02:37:09.558Z,26.98
2023-08-23T02:39:37.306Z,26.90
2023-08-23T02:42:05.308Z,26.97
2023-08-23T02:44:32.885Z,27.01
2023-08-23T02:47:00.713Z,27.03
2023-08-23T02:49:28.619Z,27.06
2023-08-23T02:51:56.144Z,27.08
2023-08-23T02:54:23.900Z,27.02
2023-08-23T02:56:51.471Z,26.98
2023-08-23T02:59:19.023Z,26.95
2023-08-23T03:01:46.775Z,26.84
2023-08-23T03:04:14.375Z,26.83
2023-08-23T03:06:41.937Z,26.68
2023-08-23T03:09:09.693Z,26.65
2023-08-23T03:11:37.164Z,26.56
2023-08-23T03:14:04.695Z,26.60
2023-08-23T03:16:32.602Z,26.54
2023-08-23T03:19:00.321Z,26.58
2023-08-23T03:21:28.531Z,26.53
2023-08-23T03:23:56.690Z,26.59
2023-08-23T03:26:24.222Z,26.58
2023-08-23T03:28:52.624Z,26.62
2023-08-23T03:31:20.442Z,26.57
2023-08-23T03:33:47.988Z,26.53
2023-08-23T03:36:15.540Z,26.57
2023-08-23T03:38:43.369Z,26.57
2023-08-23T03:41:14.398Z,26.65
2023-08-23T03:43:42.022Z,26.67
2023-08-23T03:46:10.488Z,26.73
2023-08-23T03:48:38.029Z,26.70
2023-08-23T03:51:05.612Z,26.78
2023-08-23T03:53:33.389Z,26.77
2023-08-23T03:56:00.959Z,26.70
2023-08-23T03:58:30.319Z,26.68
2023-08-23T04:00:58.285Z,26.56
2023-08-23T04:03:26.227Z,26.54
2023-08-23T04:05:54.009Z,26.47
2023-08-23T04:08:21.490Z,26.35
2023-08-23T04:10:50.348Z,26.29
2023-08-23T04:13:18.348Z,26.27
2023-08-23T04:15:46.379Z,26.12
2023-08-23T04:18:14.204Z,26.18
2023-08-23T04:20:42.239Z,26.29
2023-08-23T04:23:10.115Z,26.15
2023-08-23T04:25:37.944Z,26.28
2023-08-23T04:28:05.932Z,26.29
2023-08-23T04:30:33.514Z,26.45
2023-08-23T04:33:02.118Z,26.60
2023-08-23T04:35:29.838Z,26.67
2023-08-23T04:37:57.470Z,26.76
2023-08-23T04:40:25.954Z,27.04
2023-08-23T04:42:53.483Z,27.35
2023-08-23T04:45:21.231Z,27.33
2023-08-23T04:47:50.253Z,27.38
2023-08-23T04:50:18.047Z,27.37
2023-08-23T04:52:47.482Z,27.29
2023-08-23T04:55:15.593Z,27.52
2023-08-23T04:57:43.156Z,27.60
2023-08-23T05:00:11.465Z,27.64
2023-08-23T05:02:40.187Z,27.69
2023-08-23T05:05:08.085Z,27.66
2023-08-23T05:07:36.496Z,27.60
2023-08-23T05:10:05.755Z,27.66
2023-08-23T05:12:33.663Z,27.74
2023-08-23T05:15:01.262Z,27.83
2023-08-23T05:17:29.376Z,27.80
2023-08-23T05:19:56.925Z,27.95
2023-08-23T05:22:24.496Z,28.18
2023-08-23T05:24:52.976Z,28.50
2023-08-23T05:27:20.484Z,28.68
2023-08-23T05:29:48.099Z,28.92
2023-08-23T05:32:15.913Z,29.04
2023-08-23T05:34:46.482Z,29.25
2023-08-23T05:37:14.846Z,29.53
2023-08-23T05:39:43.243Z,29.78
2023-08-23T05:42:10.768Z,30.39
2023-08-23T05:44:38.217Z,31.55
2023-08-23T05:47:06.325Z,32.38
2023-08-23T05:49:33.808Z,33.16
2023-08-23T05:52:01.386Z,33.53
2023-08-23T05:54:29.858Z,33.07
2023-08-23T05:57:00.675Z,32.66
2023-08-23T05:59:28.575Z,32.37
2023-08-23T06:01:56.322Z,32.13
2023-08-23T06:04:24.139Z,31.88
2023-08-23T06:06:51.671Z,31.72
2023-08-23T06:09:19.446Z,31.58
2023-08-23T06:11:47.244Z,31.41
2023-08-23T06:14:20.740Z,31.45
2023-08-23T06:16:48.960Z,31.35
2023-08-23T06:19:16.500Z,31.31
2023-08-23T06:21:44.366Z,31.23
2023-08-23T06:24:12.182Z,31.15
2023-08-23T06:26:39.771Z,31.06
2023-08-23T06:29:07.275Z,30.98
2023-08-23T06:31:35.061Z,30.67
2023-08-23T06:34:02.585Z,30.81
2023-08-23T06:36:30.434Z,30.39
2023-08-23T06:38:58.621Z,30.47
2023-08-23T06:41:26.202Z,30.63
2023-08-23T06:44:00.641Z,30.71
2023-08-23T06:46:29.262Z,30.30
2023-08-23T06:48:57.552Z,30.85
2023-08-23T06:51:28.496Z,30.84
2023-08-23T06:53:56.443Z,30.89
2023-08-23T06:56:23.974Z,30.89
2023-08-23T06:58:51.522Z,31.04
2023-08-23T07:01:19.595Z,30.99
2023-08-23T07:03:47.336Z,31.08
2023-08-23T07:06:16.228Z,30.92
2023-08-23T07:08:44.471Z,31.25
2023-08-23T07:11:12.055Z,30.64
2023-08-23T07:13:40.634Z,31.01
2023-08-23T07:16:08.652Z,30.90
2023-08-23T07:18:36.682Z,30.83
2023-08-23T07:21:04.699Z,31.01
2023-08-23T07:23:32.508Z,31.17
2023-08-23T07:26:03.756Z,31.47
2023-08-23T07:28:31.786Z,31.55
2023-08-23T07:30:59.734Z,31.30
2023-08-23T07:33:28.049Z,31.64
2023-08-23T07:35:59.312Z,31.33
2023-08-23T07:38:27.887Z,31.52
2023-08-23T07:41:03.641Z,31.46
2023-08-23T07:43:31.711Z,31.55
2023-08-23T07:46:01.432Z,31.76
2023-08-23T07:48:29.366Z,31.35
2023-08-23T07:50:58.490Z,31.54
2023-08-23T07:53:26.177Z,31.59
2023-08-23T07:55:53.732Z,31.24
2023-08-23T07:58:21.548Z,31.74
2023-08-23T08:00:49.043Z,31.75
2023-08-23T08:03:16.815Z,31.80
2023-08-23T08:05:44.740Z,31.64
2023-08-23T08:08:12.348Z,31.95
2023-08-23T08:10:40.162Z,32.20
2023-08-23T08:13:07.773Z,31.89
2023-08-23T08:15:36.517Z,32.20
2023-08-23T08:18:04.491Z,32.07
2023-08-23T08:20:32.123Z,31.57
2023-08-23T08:22:59.993Z,31.96
2023-08-23T08:25:28.267Z,31.94
2023-08-23T08:27:56.498Z,31.81
2023-08-23T08:30:24.042Z,32.01
2023-08-23T08:32:52.163Z,32.00
2023-08-23T08:35:19.757Z,32.22
2023-08-23T08:37:47.638Z,31.75
2023-08-23T08:40:15.567Z,32.13
2023-08-23T08:42:43.153Z,32.49
2023-08-23T08:45:11.349Z,32.46
2023-08-23T08:47:39.204Z,31.94
2023-08-23T08:50:06.892Z,32.48
2023-08-23T08:52:34.458Z,32.48
2023-08-23T08:55:02.530Z,32.32
2023-08-23T08:57:30.437Z,32.48
2023-08-23T08:59:59.458Z,31.78
2023-08-23T09:02:27.524Z,32.65
2023-08-23T09:04:55.152Z,32.36
2023-08-23T09:07:22.779Z,32.61
2023-08-23T09:09:51.832Z,32.72
2023-08-23T09:12:20.291Z,32.92
2023-08-23T09:14:51.610Z,32.43
2023-08-23T09:17:24.261Z,32.77
2023-08-23T09:19:52.736Z,32.56
2023-08-23T09:22:22.167Z,32.86
2023-08-23T09:24:49.863Z,33.09
2023-08-23T09:27:31.169Z,33.12
2023-08-23T09:30:05.498Z,33.02
2023-08-23T09:32:33.226Z,33.53
2023-08-23T09:35:11.539Z,33.38
2023-08-23T09:37:47.172Z,33.71
2023-08-23T09:40:30.145Z,33.28
2023-08-23T09:42:59.953Z,33.62
2023-08-23T09:45:28.475Z,33.37
2023-08-23T09:48:00.489Z,33.92
2023-08-23T09:50:28.644Z,33.92
2023-08-23T09:53:03.897Z,34.19
2023-08-23T09:55:33.614Z,34.22
2023-08-23T09:58:02.019Z,34.24
2023-08-23T10:00:30.010Z,34.30
2023-08-23T10:02:59.158Z,34.26
2023-08-23T10:05:28.563Z,34.42
2023-08-23T10:07:57.867Z,34.60
2023-08-23T10:10:27.164Z,34.86
2023-08-23T10:12:56.814Z,34.69
2023-08-23T10:15:29.879Z,34.43
2023-08-23T10:17:59.574Z,34.56
2023-08-23T10:20:27.299Z,34.93
2023-08-23T10:22:57.453Z,34.94
2023-08-23T10:25:25.255Z,34.64
2023-08-23T10:27:54.938Z,35.17
2023-08-23T10:30:24.094Z,35.01
2023-08-23T10:32:55.759Z,34.70
2023-08-23T10:35:32.376Z,34.65
2023-08-23T10:38:00.976Z,35.24
2023-08-23T10:40:29.873Z,35.41
2023-08-23T10:42:58.064Z,34.99
2023-08-23T10:45:26.583Z,34.91
2023-08-23T10:47:54.583Z,34.87
2023-08-23T10:50:22.596Z,35.52
2023-08-23T10:52:51.230Z,35.62
2023-08-23T10:55:19.129Z,34.87
2023-08-23T10:57:47.131Z,34.77
2023-08-23T11:00:15.738Z,35.25
2023-08-23T11:02:43.389Z,35.62
2023-08-23T11:05:11.276Z,35.95
2023-08-23T11:07:39.821Z,35.78
2023-08-23T11:10:09.619Z,35.31
2023-08-23T11:12:39.708Z,35.00
2023-08-23T11:15:08.065Z,35.36
2023-08-23T11:17:35.657Z,35.19
2023-08-23T11:20:04.612Z,35.14
2023-08-23T11:22:32.479Z,35.46
2023-08-23T11:25:00.555Z,34.65
2023-08-23T11:27:28.202Z,34.81
2023-08-23T11:30:02.451Z,35.10
2023-08-23T11:32:32.204Z,35.15
2023-08-23T11:35:01.276Z,34.60
2023-08-23T11:37:29.706Z,34.28
2023-08-23T11:39:58.164Z,34.28
2023-08-23T11:42:26.799Z,34.70
2023-08-23T11:44:55.924Z,34.62
2023-08-23T11:47:27.305Z,34.84
2023-08-23T11:49:55.160Z,34.37
2023-08-23T11:52:22.824Z,35.01
2023-08-23T11:54:56.029Z,34.60
2023-08-23T11:57:23.841Z,34.62
2023-08-23T11:59:51.407Z,34.38
2023-08-23T12:02:19.007Z,34.45
2023-08-23T12:05:06.841Z,34.22
2023-08-23T12:07:34.377Z,34.29
2023-08-23T12:10:02.292Z,34.05
2023-08-23T12:12:29.843Z,34.16
2023-08-23T12:14:57.397Z,33.94
2023-08-23T12:17:25.214Z,34.58
2023-08-23T12:19:52.991Z,34.56
2023-08-23T12:22:20.587Z,34.08
2023-08-23T12:24:48.646Z,34.40
2023-08-23T12:27:16.209Z,34.21
2023-08-23T12:29:43.816Z,34.64
2023-08-23T12:32:11.635Z,34.75
2023-08-23T12:34:39.189Z,34.75
2023-08-23T12:37:06.964Z,34.85
2023-08-23T12:39:34.800Z,34.52
2023-08-23T12:42:02.373Z,34.50
2023-08-23T12:44:31.228Z,34.72
2023-08-23T12:46:59.080Z,35.01
2023-08-23T12:49:26.640Z,34.47
2023-08-23T12:51:54.267Z,34.00
2023-08-23T12:54:24.131Z,33.86
2023-08-23T12:56:51.900Z,34.00
2023-08-23T12:59:19.472Z,34.40
2023-08-23T13:01:47.309Z,34.34
2023-08-23T13:04:14.896Z,33.78
2023-08-23T13:06:42.457Z,33.94
2023-08-23T13:09:10.272Z,33.90
2023-08-23T13:11:38.558Z,33.95
2023-08-23T13:14:06.140Z,34.29
2023-08-23T13:16:33.955Z,33.81
2023-08-23T13:19:01.561Z,34.14
2023-08-23T13:21:29.172Z,34.03
2023-08-23T13:24:00.180Z,33.76
2023-08-23T13:26:28.044Z,34.10
2023-08-23T13:28:55.692Z,34.18
2023-08-23T13:31:24.665Z,34.19
2023-08-23T13:33:52.294Z,34.11
2023-08-23T13:36:20.209Z,34.53
2023-08-23T13:38:48.121Z,34.70
2023-08-23T13:41:15.664Z,34.70
2023-08-23T13:43:43.235Z,34.69
2023-08-23T13:46:11.532Z,33.79
2023-08-23T13:48:41.256Z,34.08
2023-08-23T13:51:10.814Z,34.19
2023-08-23T13:53:39.087Z,33.91
2023-08-23T13:56:06.548Z,33.95
2023-08-23T13:58:34.109Z,34.13
2023-08-23T14:01:02.042Z,34.09
2023-08-23T14:03:29.929Z,34.35
2023-08-23T14:06:05.088Z,34.51
2023-08-23T14:08:32.942Z,34.64
2023-08-23T14:11:00.559Z,34.12
2023-08-23T14:13:28.176Z,34.14
2023-08-23T14:15:56.012Z,34.41
2023-08-23T14:18:24.424Z,34.32
2023-08-23T14:20:52.013Z,34.07
2023-08-23T14:23:20.123Z,34.11
2023-08-23T14:25:47.793Z,33.85
2023-08-23T14:28:15.379Z,33.94
2023-08-23T14:30:45.526Z,34.16
2023-08-23T14:33:13.304Z,34.37
2023-08-23T14:35:42.070Z,34.38
2023-08-23T14:38:09.964Z,34.34
2023-08-23T14:40:37.581Z,34.82
2023-08-23T14:43:05.800Z,34.54
2023-08-23T14:45:34.403Z,34.29
2023-08-23T14:48:02.010Z,34.50
2023-08-23T14:50:29.595Z,34.49
2023-08-23T14:52:57.472Z,34.67
2023-08-23T14:55:26.620Z,34.57
2023-08-23T14:57:54.133Z,34.51
2023-08-23T15:00:22.101Z,34.20
2023-08-23T15:02:49.828Z,34.45
2023-08-23T15:05:17.461Z,34.23
2023-08-23T15:07:45.509Z,34.35
2023-08-23T15:10:13.253Z,34.27
2023-08-23T15:12:40.814Z,33.80
2023-08-23T15:15:09.957Z,34.02
2023-08-23T15:17:37.803Z,34.21
2023-08-23T15:20:06.504Z,34.44
2023-08-23T15:22:34.468Z,34.52
2023-08-23T15:25:02.429Z,34.42
2023-08-23T15:27:47.568Z,34.00
2023-08-23T15:30:15.384Z,33.93
2023-08-23T15:32:43.118Z,33.83
2023-08-23T15:35:10.982Z,33.61
2023-08-23T15:37:39.193Z,33.80
2023-08-23T15:40:07.469Z,33.55
2023-08-23T15:42:35.101Z,33.64
2023-08-23T15:45:02.911Z,33.65
2023-08-23T15:47:30.624Z,33.71
2023-08-23T15:49:58.138Z,33.60
2023-08-23T15:52:25.995Z,33.36
2023-08-23T15:54:53.570Z,33.47
2023-08-23T15:57:21.772Z,33.25
2023-08-23T15:59:49.678Z,33.37
2023-08-23T16:02:17.305Z,33.33
2023-08-23T16:04:45.365Z,33.62
2023-08-23T16:07:13.148Z,33.09
2023-08-23T16:09:43.210Z,33.38
2023-08-23T16:12:11.640Z,33.49
2023-08-23T16:14:42.388Z,32.97
2023-08-23T16:17:10.171Z,33.15
2023-08-23T16:19:38.865Z,32.87
2023-08-23T16:22:06.593Z,32.78
2023-08-23T16:24:34.310Z,32.69
2023-08-23T16:27:02.108Z,32.73
2023-08-23T16:29:29.681Z,33.00
2023-08-23T16:31:57.283Z,33.37
2023-08-23T16:34:25.570Z,32.98
2023-08-23T16:36:53.102Z,33.28
2023-08-23T16:39:20.976Z,32.83
2023-08-23T16:41:49.418Z,32.81
2023-08-23T16:44:17.802Z,32.83
2023-08-23T16:46:45.325Z,32.84
2023-08-23T16:49:13.130Z,33.14
2023-08-23T16:51:40.765Z,32.62
2023-08-23T16:54:08.446Z,33.15
2023-08-23T16:56:36.338Z,33.24
2023-08-23T16:59:04.001Z,33.16
2023-08-23T17:01:31.642Z,33.27
2023-08-23T17:03:59.648Z,33.23
2023-08-23T17:06:27.573Z,33.17
2023-08-23T17:08:55.108Z,32.77
2023-08-23T17:11:22.923Z,33.05
2023-08-23T17:13:50.605Z,32.94
2023-08-23T17:16:18.357Z,32.92
2023-08-23T17:18:46.227Z,32.97
2023-08-23T17:21:13.846Z,32.97
2023-08-23T17:23:41.622Z,33.03
2023-08-23T17:26:09.755Z,32.88
2023-08-23T17:28:39.435Z,32.83
2023-08-23T17:31:08.545Z,32.76
2023-08-23T17:33:36.918Z,32.77
2023-08-23T17:36:06.357Z,32.70
2023-08-23T17:38:34.121Z,32.77
2023-08-23T17:41:06.181Z,32.78
2023-08-23T17:43:35.041Z,32.78
2023-08-23T17:46:07.924Z,32.66
2023-08-23T17:48:35.580Z,32.70
2023-08-23T17:51:03.485Z,32.61
2023-08-23T17:53:31.407Z,32.53
2023-08-23T17:56:05.020Z,32.51
2023-08-23T17:58:32.885Z,32.31
2023-08-23T18:01:00.661Z,32.35
2023-08-23T18:03:28.779Z,32.43
2023-08-23T18:05:56.297Z,32.37
2023-08-23T18:08:23.962Z,32.24
2023-08-23T18:10:54.239Z,31.95
2023-08-23T18:13:21.945Z,31.89
2023-08-23T18:15:49.596Z,31.98
2023-08-23T18:18:20.155Z,31.93
2023-08-23T18:20:47.984Z,31.83
2023-08-23T18:23:15.567Z,31.84
2023-08-23T18:25:43.728Z,31.82
2023-08-23T18:28:11.229Z,31.78
2023-08-23T18:30:39.900Z,31.76
2023-08-23T18:33:09.390Z,31.53
2023-08-23T18:35:37.023Z,31.50
2023-08-23T18:38:04.729Z,31.53
2023-08-23T18:40:32.507Z,31.45
2023-08-23T18:43:00.197Z,31.45
2023-08-23T18:45:27.760Z,31.39
2023-08-23T18:47:55.621Z,31.41
2023-08-23T18:50:23.168Z,31.41
2023-08-23T18:52:51.741Z,31.42
2023-08-23T18:55:19.927Z,31.32
2023-08-23T18:57:50.505Z,31.34
2023-08-23T19:00:18.238Z,31.32
2023-08-23T19:02:46.254Z,31.33
2023-08-23T19:05:20.392Z,30.93
2023-08-23T19:07:50.522Z,31.03
2023-08-23T19:10:18.132Z,30.86
2023-08-23T19:12:46.809Z,30.87
2023-08-23T19:15:15.155Z,30.66
2023-08-23T19:17:45.992Z,30.47
2023-08-23T19:20:14.472Z,30.46
2023-08-23T19:22:42.503Z,30.48
2023-08-23T19:25:10.184Z,30.45
2023-08-23T19:27:37.773Z,30.33
2023-08-23T19:30:26.152Z,30.27
2023-08-23T19:32:54.502Z,30.35
2023-08-23T19:35:23.482Z,29.99
2023-08-23T19:37:52.015Z,30.16
2023-08-23T19:40:19.979Z,30.05
2023-08-23T19:42:47.800Z,30.00
2023-08-23T19:45:16.289Z,29.80
2023-08-23T19:47:44.156Z,29.82
2023-08-23T19:50:12.036Z,29.84
2023-08-23T19:52:39.654Z,29.80
2023-08-23T19:55:07.697Z,29.76
2023-08-23T19:57:37.856Z,29.78
2023-08-23T20:00:06.105Z,29.77
2023-08-23T20:02:42.529Z,29.72
2023-08-23T20:05:12.722Z,29.62
2023-08-23T20:07:42.260Z,29.63
2023-08-23T20:10:10.224Z,29.58
2023-08-23T20:12:39.305Z,29.38
2023-08-23T20:15:07.670Z,29.58
2023-08-23T20:17:35.824Z,29.56
2023-08-23T20:20:04.012Z,29.33
2023-08-23T20:22:31.847Z,29.47
2023-08-23T20:25:00.027Z,29.46
2023-08-23T20:27:27.718Z,29.58
2023-08-23T20:29:55.356Z,29.60
2023-08-23T20:32:23.408Z,29.68
2023-08-23T20:34:51.118Z,29.51
2023-08-23T20:37:18.611Z,29.56
2023-08-23T20:39:46.469Z,29.39
2023-08-23T20:42:14.294Z,29.41
2023-08-23T20:44:41.990Z,29.35
2023-08-23T20:47:09.970Z,29.38
2023-08-23T20:49:37.947Z,29.41
2023-08-23T20:52:05.767Z,29.33
2023-08-23T20:54:33.801Z,29.38
2023-08-23T20:57:01.350Z,29.44
2023-08-23T20:59:29.041Z,29.48
2023-08-23T21:01:57.063Z,29.44
2023-08-23T21:04:26.092Z,29.33
2023-08-23T21:06:53.682Z,29.25
2023-08-23T21:09:21.545Z,29.38
2023-08-23T21:11:49.216Z,29.46
2023-08-23T21:14:16.793Z,29.41
2023-08-23T21:16:45.482Z,29.40
2023-08-23T21:19:13.913Z,29.36
2023-08-23T21:21:41.460Z,29.45
2023-08-23T21:24:09.735Z,29.52
2023-08-23T21:26:37.221Z,29.57
2023-08-23T21:29:04.790Z,29.59
2023-08-23T21:31:32.900Z,29.56
2023-08-23T21:34:00.468Z,29.56
2023-08-23T21:36:28.020Z,29.50
2023-08-23T21:38:55.766Z,29.49
2023-08-23T21:41:23.291Z,29.46
2023-08-23T21:43:50.753Z,29.49
2023-08-23T21:46:18.663Z,29.46
2023-08-23T21:48:46.243Z,29.42
2023-08-23T21:51:13.796Z,29.37
2023-08-23T21:53:41.673Z,29.33
2023-08-23T21:56:09.218Z,29.12
2023-08-23T21:58:36.692Z,29.18
2023-08-23T22:01:04.613Z,29.23
2023-08-23T22:03:42.080Z,29.22
2023-08-23T22:06:11.564Z,29.22
2023-08-23T22:08:41.536Z,29.21
2023-08-23T22:11:15.407Z,29.06
2023-08-23T22:13:44.460Z,28.90
2023-08-23T22:16:13.843Z,28.88
2023-08-23T22:18:42.469Z,28.82
2023-08-23T22:21:11.446Z,28.74
2023-08-23T22:23:39.183Z,28.48
2023-08-23T22:26:07.118Z,28.54
2023-08-23T22:28:35.109Z,28.40
2023-08-23T22:31:02.854Z,28.24
2023-08-23T22:33:30.456Z,28.31
2023-08-23T22:35:59.013Z,28.25
2023-08-23T22:38:27.293Z,28.22
2023-08-23T22:40:56.192Z,28.17
2023-08-23T22:43:24.430Z,28.10
2023-08-23T22:45:53.246Z,28.15
2023-08-23T22:48:20.836Z,28.18
2023-08-23T22:50:49.023Z,28.17
2023-08-23T22:53:16.463Z,28.14
2023-08-23T22:55:44.038Z,27.98
2023-08-23T22:58:11.867Z,28.01
2023-08-23T23:00:39.432Z,27.90
2023-08-23T23:03:07.024Z,27.87
2023-08-23T23:05:37.737Z,27.84
2023-08-23T23:08:06.840Z,27.85
2023-08-23T23:10:34.662Z,27.68
2023-08-23T23:13:03.338Z,27.73
2023-08-23T23:15:31.132Z,27.72
2023-08-23T23:17:58.917Z,27.50
2023-08-23T23:20:26.435Z,27.41
2023-08-23T23:22:54.066Z,27.48
2023-08-23T23:25:21.896Z,27.46
2023-08-23T23:27:49.644Z,27.28
2023-08-23T23:30:17.558Z,27.29
2023-08-23T23:32:45.477Z,27.18
2023-08-23T23:35:13.652Z,27.17
2023-08-23T23:37:41.176Z,27.26
2023-08-23T23:40:10.451Z,27.23
2023-08-23T23:42:38.153Z,27.25
2023-08-23T23:45:06.265Z,27.26
2023-08-23T23:47:34.089Z,27.18
2023-08-23T23:50:02.306Z,27.18
2023-08-23T23:52:29.823Z,27.04
2023-08-23T23:54:57.636Z,27.10
2023-08-23T23:57:25.122Z,27.02
2023-08-23T23:59:52.772Z,27.03
